createdAt,value
2023-03-07T00:00:20.277Z,-1.17
2023-03-07T00:00:40.422Z,-1.17
2023-03-07T00:01:08.414Z,-1.17
2023-03-07T00:01:39.012Z,-1.05
2023-03-07T00:02:11.828Z,-1.21
2023-03-07T00:02:36.943Z,-1.21
2023-03-07T00:02:59.104Z,-1.21
2023-03-07T00:03:30.952Z,-1.21
2023-03-07T00:03:48.318Z,-1.21
2023-03-07T00:04:19.064Z,-1.21
2023-03-07T00:04:41.245Z,-1.21
2023-03-07T00:05:08.170Z,-1.05
2023-03-07T00:05:39.369Z,-1.21
2023-03-07T00:06:11.251Z,-1.21
2023-03-07T00:06:37.358Z,-1.21
2023-03-07T00:06:58.958Z,-1.21
2023-03-07T00:07:30.974Z,-1.21
2023-03-07T00:08:02.629Z,-1.21
2023-03-07T00:08:36.273Z,-1.21
2023-03-07T00:09:09.243Z,-1.21
2023-03-07T00:09:39.097Z,-1.21
2023-03-07T00:10:11.213Z,-1.21
2023-03-07T00:10:28.732Z,-1.21
2023-03-07T00:10:59.271Z,-1.21
2023-03-07T00:11:30.902Z,-1.21
2023-03-07T00:11:49.846Z,-1.21
2023-03-07T00:12:18.601Z,-1.21
2023-03-07T00:12:41.303Z,-1.21
2023-03-07T00:13:08.083Z,-1.21
2023-03-07T00:13:39.880Z,-1.21
2023-03-07T00:14:11.396Z,-1.21
2023-03-07T00:14:37.226Z,-1.05
2023-03-07T00:14:59.594Z,-1.05
2023-03-07T00:15:32.631Z,-1.21
2023-03-07T00:16:02.795Z,-1.21
2023-03-07T00:16:34.898Z,-1.21
2023-03-07T00:17:08.087Z,-1.21
2023-03-07T00:17:40.938Z,-1.21
2023-03-07T00:18:11.217Z,-1.05
2023-03-07T00:18:37.291Z,-1.21
2023-03-07T00:18:59.510Z,-1.05
2023-03-07T00:19:31.291Z,-1.05
2023-03-07T00:20:04.096Z,-1.05
2023-03-07T00:20:34.729Z,-1.05
2023-03-07T00:21:07.948Z,-1.05
2023-03-07T00:21:40.258Z,-1.05
2023-03-07T00:22:12.648Z,-1.17
2023-03-07T00:22:28.356Z,-1.32
2023-03-07T00:23:00.503Z,-1.17
2023-03-07T00:23:31.256Z,-1.17
2023-03-07T00:24:02.577Z,-1.17
2023-03-07T00:24:34.994Z,-1.17
2023-03-07T00:25:08.523Z,-1.17
2023-03-07T00:25:40.293Z,-1.17
2023-03-07T00:26:12.100Z,-1.17
2023-03-07T00:26:37.418Z,-1.17
2023-03-07T00:26:59.626Z,-1.17
2023-03-07T00:27:32.318Z,-1.17
2023-03-07T00:28:02.653Z,-1.17
2023-03-07T00:28:34.835Z,-1.17
2023-03-07T00:29:07.547Z,-1.17
2023-03-07T00:29:39.017Z,-1.17
2023-03-07T00:30:13.989Z,-1.17
2023-03-07T00:30:37.381Z,-1.17
2023-03-07T00:30:59.691Z,-1.17
2023-03-07T00:31:30.855Z,-1.17
2023-03-07T00:31:47.371Z,-1.17
2023-03-07T00:32:18.595Z,-1.17
2023-03-07T00:32:40.409Z,-1.17
2023-03-07T00:33:07.545Z,-1.17
2023-03-07T00:33:39.068Z,-1.17
2023-03-07T00:34:12.105Z,-1.17
2023-03-07T00:34:37.021Z,-1.32
2023-03-07T00:34:59.374Z,-1.17
2023-03-07T00:35:31.834Z,-1.17
2023-03-07T00:36:04.271Z,-1.17
2023-03-07T00:36:35.081Z,-1.17
2023-03-07T00:37:07.990Z,-1.17
2023-03-07T00:37:39.158Z,-1.17
2023-03-07T00:38:11.022Z,-1.17
2023-03-07T00:38:36.984Z,-1.17
2023-03-07T00:38:59.265Z,-1.17
2023-03-07T00:39:31.394Z,-1.17
2023-03-07T00:40:03.971Z,-1.17
2023-03-07T00:40:34.970Z,-1.17
2023-03-07T00:41:07.493Z,-1.32
2023-03-07T00:41:39.064Z,-1.32
2023-03-07T00:42:10.590Z,-1.32
2023-03-07T00:42:27.449Z,-1.32
2023-03-07T00:42:59.638Z,-1.05
2023-03-07T00:43:31.020Z,-1.05
2023-03-07T00:44:02.856Z,-1.21
2023-03-07T00:44:35.184Z,-1.21
2023-03-07T00:45:08.676Z,-1.05
2023-03-07T00:45:38.967Z,-1.05
2023-03-07T00:46:11.125Z,-1.05
2023-03-07T00:46:37.843Z,-1.17
2023-03-07T00:46:59.502Z,-1.32
2023-03-07T00:47:31.349Z,-1.32
2023-03-07T00:48:02.940Z,-1.32
2023-03-07T00:48:35.147Z,-1.17
2023-03-07T00:49:08.017Z,-1.32
2023-03-07T00:49:39.616Z,-1.32
2023-03-07T00:50:11.460Z,-1.32
2023-03-07T00:50:36.933Z,-1.32
2023-03-07T00:50:59.117Z,-1.32
2023-03-07T00:51:31.267Z,-1.17
2023-03-07T00:52:03.091Z,-1.32
2023-03-07T00:52:36.454Z,-1.32
2023-03-07T00:53:07.423Z,-1.32
2023-03-07T00:53:39.244Z,-1.32
2023-03-07T00:54:10.952Z,-1.17
2023-03-07T00:54:27.885Z,-1.17
2023-03-07T00:54:59.285Z,-1.32
2023-03-07T00:55:31.684Z,-1.32
2023-03-07T00:55:48.095Z,-1.32
2023-03-07T00:56:19.409Z,-1.21
2023-03-07T00:56:41.761Z,-1.21
2023-03-07T00:57:08.473Z,-1.21
2023-03-07T00:57:39.480Z,-1.21
2023-03-07T00:58:10.628Z,-1.21
2023-03-07T00:58:27.507Z,-1.21
2023-03-07T00:58:59.608Z,-1.21
2023-03-07T00:59:31.802Z,-1.21
2023-03-07T01:00:04.636Z,-1.05
2023-03-07T01:00:35.754Z,-1.21
2023-03-07T01:01:10.075Z,-1.32
2023-03-07T01:01:39.450Z,-1.17
2023-03-07T01:02:10.818Z,-1.32
2023-03-07T01:02:37.306Z,-1.32
2023-03-07T01:03:00.736Z,-1.32
2023-03-07T01:03:31.716Z,-1.32
2023-03-07T01:04:02.629Z,-1.32
2023-03-07T01:04:35.969Z,-1.32
2023-03-07T01:05:08.762Z,-1.32
2023-03-07T01:05:39.722Z,-1.32
2023-03-07T01:06:11.755Z,-1.32
2023-03-07T01:06:37.546Z,-1.32
2023-03-07T01:06:59.232Z,-1.32
2023-03-07T01:07:31.143Z,-1.32
2023-03-07T01:07:47.198Z,-1.32
2023-03-07T01:08:18.630Z,-1.32
2023-03-07T01:08:40.518Z,-1.32
2023-03-07T01:09:07.507Z,-1.32
2023-03-07T01:09:39.060Z,-1.32
2023-03-07T01:10:11.133Z,-1.32
2023-03-07T01:10:27.475Z,-1.32
2023-03-07T01:11:00.704Z,-1.32
2023-03-07T01:11:31.766Z,-1.32
2023-03-07T01:12:03.021Z,-1.32
2023-03-07T01:12:35.040Z,-1.32
2023-03-07T01:13:07.592Z,-1.32
2023-03-07T01:13:39.382Z,-1.32
2023-03-07T01:14:10.835Z,-1.32
2023-03-07T01:14:37.816Z,-1.32
2023-03-07T01:14:58.869Z,-1.32
2023-03-07T01:15:31.599Z,-1.32
2023-03-07T01:15:47.299Z,-1.32
2023-03-07T01:16:18.679Z,-1.32
2023-03-07T01:16:40.569Z,-1.32
2023-03-07T01:17:07.478Z,-1.49
2023-03-07T01:17:38.758Z,-1.49
2023-03-07T01:18:10.787Z,-1.49
2023-03-07T01:18:27.529Z,-1.49
2023-03-07T01:18:58.801Z,-1.49
2023-03-07T01:19:30.714Z,-1.49
2023-03-07T01:19:47.259Z,-1.49
2023-03-07T01:20:18.924Z,-1.49
2023-03-07T01:20:40.340Z,-1.32
2023-03-07T01:21:07.647Z,-1.49
2023-03-07T01:21:38.851Z,-1.49
2023-03-07T01:22:10.601Z,-1.49
2023-03-07T01:22:27.578Z,-1.49
2023-03-07T01:22:58.941Z,-1.49
2023-03-07T01:23:30.833Z,-1.49
2023-03-07T01:23:47.320Z,-1.49
2023-03-07T01:24:18.761Z,-1.49
2023-03-07T01:24:40.342Z,-1.49
2023-03-07T01:25:08.922Z,-1.32
2023-03-07T01:25:39.185Z,-1.49
2023-03-07T01:26:10.822Z,-1.49
2023-03-07T01:26:37.123Z,-1.66
2023-03-07T01:26:59.024Z,-1.66
2023-03-07T01:27:32.218Z,-1.66
2023-03-07T01:28:02.855Z,-1.66
2023-03-07T01:28:36.500Z,-1.49
2023-03-07T01:29:08.602Z,-1.49
2023-03-07T01:29:39.091Z,-1.66
2023-03-07T01:30:12.039Z,-1.49
2023-03-07T01:30:37.491Z,-1.49
2023-03-07T01:30:59.976Z,-1.66
2023-03-07T01:31:31.283Z,-1.66
2023-03-07T01:32:03.145Z,-1.66
2023-03-07T01:32:34.862Z,-1.66
2023-03-07T01:33:07.550Z,-1.49
2023-03-07T01:33:39.142Z,-1.49
2023-03-07T01:34:10.936Z,-1.49
2023-03-07T01:34:27.446Z,-1.49
2023-03-07T01:34:58.859Z,-1.49
2023-03-07T01:35:31.505Z,-1.49
2023-03-07T01:35:47.387Z,-1.49
2023-03-07T01:36:19.840Z,-1.49
2023-03-07T01:36:40.958Z,-1.60
2023-03-07T01:37:07.672Z,-1.60
2023-03-07T01:37:39.471Z,-1.76
2023-03-07T01:38:10.986Z,-1.60
2023-03-07T01:38:36.908Z,-1.76
2023-03-07T01:38:58.985Z,-1.60
2023-03-07T01:39:31.314Z,-1.76
2023-03-07T01:40:04.266Z,-1.76
2023-03-07T01:40:35.582Z,-1.76
2023-03-07T01:41:07.870Z,-1.66
2023-03-07T01:41:38.900Z,-1.66
2023-03-07T01:42:10.743Z,-1.66
2023-03-07T01:42:28.377Z,-1.81
2023-03-07T01:42:59.059Z,-1.66
2023-03-07T01:43:31.328Z,-1.66
2023-03-07T01:44:02.960Z,-1.81
2023-03-07T01:44:35.082Z,-1.66
2023-03-07T01:45:08.512Z,-1.66
2023-03-07T01:45:39.515Z,-1.81
2023-03-07T01:46:10.720Z,-1.66
2023-03-07T01:46:27.468Z,-1.66
2023-03-07T01:46:58.945Z,-1.66
2023-03-07T01:47:30.705Z,-1.66
2023-03-07T01:47:47.241Z,-1.66
2023-03-07T01:48:18.856Z,-1.66
2023-03-07T01:48:40.317Z,-1.66
2023-03-07T01:49:07.510Z,-1.66
2023-03-07T01:49:39.370Z,-1.49
2023-03-07T01:50:12.635Z,-1.76
2023-03-07T01:50:36.951Z,-1.76
2023-03-07T01:50:59.609Z,-1.76
2023-03-07T01:51:31.557Z,-1.76
2023-03-07T01:52:02.667Z,-1.76
2023-03-07T01:52:35.352Z,-1.76
2023-03-07T01:53:08.692Z,-1.76
2023-03-07T01:53:39.317Z,-1.76
2023-03-07T01:54:12.556Z,-1.66
2023-03-07T01:54:36.647Z,-1.66
2023-03-07T01:54:58.796Z,-1.66
2023-03-07T01:55:31.171Z,-1.81
2023-03-07T01:55:47.177Z,-1.66
2023-03-07T01:56:18.959Z,-1.66
2023-03-07T01:56:40.404Z,-1.66
2023-03-07T01:57:07.417Z,-1.66
2023-03-07T01:57:38.920Z,-1.66
2023-03-07T01:58:12.343Z,-1.81
2023-03-07T01:58:37.121Z,-1.76
2023-03-07T01:58:59.033Z,-1.92
2023-03-07T01:59:31.838Z,-1.81
2023-03-07T02:00:04.837Z,-1.81
2023-03-07T02:00:35.511Z,-1.81
2023-03-07T02:01:08.056Z,-1.81
2023-03-07T02:01:39.208Z,-1.81
2023-03-07T02:02:11.172Z,-1.81
2023-03-07T02:02:37.116Z,-1.66
2023-03-07T02:02:59.244Z,-1.66
2023-03-07T02:03:31.315Z,-1.66
2023-03-07T02:04:02.965Z,-1.81
2023-03-07T02:04:35.089Z,-1.81
2023-03-07T02:05:08.122Z,-1.92
2023-03-07T02:05:39.386Z,-1.92
2023-03-07T02:06:10.731Z,-1.92
2023-03-07T02:06:36.956Z,-1.92
2023-03-07T02:06:58.968Z,-1.92
2023-03-07T02:07:31.572Z,-1.92
2023-03-07T02:08:02.719Z,-1.92
2023-03-07T02:08:36.749Z,-1.92
2023-03-07T02:09:07.528Z,-2.08
2023-03-07T02:09:39.436Z,-1.92
2023-03-07T02:10:11.732Z,-1.92
2023-03-07T02:10:36.860Z,-1.92
2023-03-07T02:10:59.484Z,-1.92
2023-03-07T02:11:31.433Z,-1.98
2023-03-07T02:12:02.840Z,-1.81
2023-03-07T02:12:35.797Z,-1.81
2023-03-07T02:13:07.526Z,-1.98
2023-03-07T02:13:39.515Z,-1.98
2023-03-07T02:14:11.462Z,-1.98
2023-03-07T02:14:37.513Z,-1.98
2023-03-07T02:14:58.958Z,-1.98
2023-03-07T02:15:32.126Z,-1.98
2023-03-07T02:16:02.807Z,-1.81
2023-03-07T02:16:35.654Z,-1.98
2023-03-07T02:17:08.279Z,-1.98
2023-03-07T02:17:39.027Z,-1.98
2023-03-07T02:18:11.328Z,-1.98
2023-03-07T02:18:36.603Z,-1.98
2023-03-07T02:18:58.834Z,-1.98
2023-03-07T02:19:30.933Z,-1.98
2023-03-07T02:19:47.364Z,-1.98
2023-03-07T02:20:19.076Z,-1.98
2023-03-07T02:20:40.448Z,-1.98
2023-03-07T02:21:07.730Z,-1.98
2023-03-07T02:21:38.823Z,-1.81
2023-03-07T02:22:10.896Z,-1.98
2023-03-07T02:22:27.491Z,-1.98
2023-03-07T02:22:58.871Z,-2.08
2023-03-07T02:23:31.380Z,-2.08
2023-03-07T02:23:47.460Z,-2.08
2023-03-07T02:24:18.729Z,-2.08
2023-03-07T02:24:41.007Z,-1.92
2023-03-07T02:25:07.790Z,-1.92
2023-03-07T02:25:41.542Z,-2.08
2023-03-07T02:26:10.995Z,-2.08
2023-03-07T02:26:37.363Z,-2.08
2023-03-07T02:27:00.954Z,-2.08
2023-03-07T02:27:30.988Z,-2.08
2023-03-07T02:27:47.673Z,-2.08
2023-03-07T02:28:20.216Z,-2.08
2023-03-07T02:28:40.768Z,-2.08
2023-03-07T02:29:07.862Z,-2.08
2023-03-07T02:29:40.473Z,-2.08
2023-03-07T02:30:11.600Z,-2.08
2023-03-07T02:30:27.579Z,-2.08
2023-03-07T02:30:59.383Z,-2.08
2023-03-07T02:31:30.740Z,-1.98
2023-03-07T02:31:47.336Z,-1.98
2023-03-07T02:32:18.749Z,-1.98
2023-03-07T02:32:40.621Z,-1.98
2023-03-07T02:33:07.505Z,-2.08
2023-03-07T02:33:38.819Z,-2.08
2023-03-07T02:34:10.982Z,-1.98
2023-03-07T02:34:27.486Z,-1.98
2023-03-07T02:34:58.876Z,-1.98
2023-03-07T02:35:31.104Z,-1.98
2023-03-07T02:35:47.514Z,-2.08
2023-03-07T02:36:18.689Z,-2.08
2023-03-07T02:36:40.438Z,-1.92
2023-03-07T02:37:07.397Z,-2.08
2023-03-07T02:37:38.939Z,-2.08
2023-03-07T02:38:10.806Z,-2.08
2023-03-07T02:38:27.491Z,-2.08
2023-03-07T02:38:58.935Z,-2.08
2023-03-07T02:39:30.834Z,-2.08
2023-03-07T02:39:47.392Z,-2.08
2023-03-07T02:40:19.131Z,-2.08
2023-03-07T02:40:40.426Z,-2.08
2023-03-07T02:41:07.497Z,-2.08
2023-03-07T02:41:39.234Z,-2.08
2023-03-07T02:42:10.763Z,-2.08
2023-03-07T02:42:27.452Z,-2.08
2023-03-07T02:42:59.435Z,-2.08
2023-03-07T02:43:30.788Z,-2.08
2023-03-07T02:43:47.213Z,-2.08
2023-03-07T02:44:18.699Z,-2.08
2023-03-07T02:44:40.996Z,-2.08
2023-03-07T02:45:08.399Z,-2.08
2023-03-07T02:45:38.909Z,-2.08
2023-03-07T02:46:11.152Z,-2.08
2023-03-07T02:46:27.745Z,-2.08
2023-03-07T02:46:58.904Z,-2.08
2023-03-07T02:47:30.850Z,-2.08
2023-03-07T02:47:47.355Z,-2.08
2023-03-07T02:48:18.624Z,-2.08
2023-03-07T02:48:40.515Z,-2.08
2023-03-07T02:49:07.439Z,-2.08
2023-03-07T02:49:39.218Z,-2.08
2023-03-07T02:50:11.496Z,-2.08
2023-03-07T02:50:36.688Z,-2.08
2023-03-07T02:50:59.645Z,-2.08
2023-03-07T02:51:30.839Z,-2.08
2023-03-07T02:51:47.398Z,-2.08
2023-03-07T02:52:19.220Z,-2.08
2023-03-07T02:52:40.482Z,-2.08
2023-03-07T02:53:07.409Z,-2.08
2023-03-07T02:53:39.014Z,-2.08
2023-03-07T02:54:10.880Z,-1.98
2023-03-07T02:54:27.410Z,-2.14
2023-03-07T02:54:58.908Z,-2.14
2023-03-07T02:55:31.214Z,-2.14
2023-03-07T02:55:47.466Z,-2.14
2023-03-07T02:56:18.650Z,-2.14
2023-03-07T02:56:40.753Z,-2.14
2023-03-07T02:57:07.686Z,-2.14
2023-03-07T02:57:39.003Z,-2.14
2023-03-07T02:58:11.131Z,-2.14
2023-03-07T02:58:28.059Z,-2.14
2023-03-07T02:59:00.834Z,-2.14
2023-03-07T02:59:31.806Z,-2.14
2023-03-07T03:00:05.030Z,-1.98
2023-03-07T03:00:35.765Z,-1.98
2023-03-07T03:01:08.545Z,-2.14
2023-03-07T03:01:40.846Z,-2.14
2023-03-07T03:02:11.420Z,-2.14
2023-03-07T03:02:36.761Z,-2.14
2023-03-07T03:03:00.458Z,-2.14
2023-03-07T03:03:31.428Z,-2.14
2023-03-07T03:04:02.768Z,-2.14
2023-03-07T03:04:35.331Z,-2.14
2023-03-07T03:05:08.427Z,-2.14
2023-03-07T03:05:39.286Z,-1.98
2023-03-07T03:06:10.948Z,-2.14
2023-03-07T03:06:27.644Z,-1.98
2023-03-07T03:06:59.790Z,-1.98
2023-03-07T03:07:30.961Z,-2.14
2023-03-07T03:07:47.610Z,-2.14
2023-03-07T03:08:19.510Z,-1.98
2023-03-07T03:08:40.707Z,-1.98
2023-03-07T03:09:08.317Z,-1.98
2023-03-07T03:09:39.814Z,-2.14
2023-03-07T03:10:12.589Z,-2.14
2023-03-07T03:10:37.663Z,-1.98
2023-03-07T03:10:59.231Z,-1.98
2023-03-07T03:11:31.678Z,-1.98
2023-03-07T03:12:02.723Z,-1.98
2023-03-07T03:12:34.790Z,-2.14
2023-03-07T03:13:07.878Z,-2.14
2023-03-07T03:13:39.307Z,-2.14
2023-03-07T03:14:12.325Z,-2.14
2023-03-07T03:14:36.907Z,-2.14
2023-03-07T03:14:59.048Z,-2.14
2023-03-07T03:15:32.265Z,-1.98
2023-03-07T03:16:03.227Z,-2.14
2023-03-07T03:16:35.026Z,-2.14
2023-03-07T03:17:07.862Z,-1.98
2023-03-07T03:17:39.139Z,-1.98
2023-03-07T03:18:10.958Z,-1.98
2023-03-07T03:18:27.593Z,-1.98
2023-03-07T03:18:59.215Z,-2.14
2023-03-07T03:19:31.101Z,-2.14
2023-03-07T03:19:47.782Z,-2.14
2023-03-07T03:20:19.536Z,-2.14
2023-03-07T03:20:40.623Z,-2.14
2023-03-07T03:21:07.765Z,-2.14
2023-03-07T03:21:38.932Z,-2.14
2023-03-07T03:22:12.232Z,-2.14
2023-03-07T03:22:36.763Z,-1.98
2023-03-07T03:22:59.118Z,-2.03
2023-03-07T03:23:31.083Z,-2.03
2023-03-07T03:23:47.917Z,-1.86
2023-03-07T03:24:19.090Z,-2.03
2023-03-07T03:24:40.720Z,-2.03
2023-03-07T03:25:08.473Z,-2.03
2023-03-07T03:25:40.215Z,-2.03
2023-03-07T03:26:11.147Z,-2.03
2023-03-07T03:26:36.974Z,-2.03
2023-03-07T03:26:59.279Z,-2.03
2023-03-07T03:27:31.036Z,-2.03
2023-03-07T03:27:47.834Z,-2.03
2023-03-07T03:28:19.151Z,-2.03
2023-03-07T03:28:41.025Z,-2.03
2023-03-07T03:29:07.629Z,-2.03
2023-03-07T03:29:39.314Z,-2.03
2023-03-07T03:30:11.898Z,-2.03
2023-03-07T03:30:29.222Z,-2.03
2023-03-07T03:31:00.333Z,-2.03
2023-03-07T03:31:31.022Z,-2.03
2023-03-07T03:31:48.667Z,-2.03
2023-03-07T03:32:18.920Z,-2.03
2023-03-07T03:32:41.682Z,-2.03
2023-03-07T03:33:08.349Z,-1.86
2023-03-07T03:33:38.936Z,-1.86
2023-03-07T03:34:11.312Z,-1.86
2023-03-07T03:34:36.654Z,-1.86
2023-03-07T03:34:59.260Z,-1.86
2023-03-07T03:35:31.521Z,-2.03
2023-03-07T03:35:48.165Z,-2.03
2023-03-07T03:36:19.444Z,-1.98
2023-03-07T03:36:41.806Z,-2.14
2023-03-07T03:37:08.551Z,-1.98
2023-03-07T03:37:39.498Z,-1.98
2023-03-07T03:38:11.390Z,-1.98
2023-03-07T03:38:37.351Z,-2.14
2023-03-07T03:38:58.924Z,-2.14
2023-03-07T03:39:31.153Z,-1.98
2023-03-07T03:40:04.970Z,-2.14
2023-03-07T03:40:35.147Z,-2.03
2023-03-07T03:41:07.479Z,-2.03
2023-03-07T03:41:40.501Z,-2.03
2023-03-07T03:42:11.045Z,-2.03
2023-03-07T03:42:27.605Z,-2.03
2023-03-07T03:43:00.043Z,-2.03
2023-03-07T03:43:31.254Z,-2.03
2023-03-07T03:44:02.754Z,-2.03
2023-03-07T03:44:35.411Z,-2.03
2023-03-07T03:45:08.759Z,-1.86
2023-03-07T03:45:40.208Z,-1.86
2023-03-07T03:46:11.370Z,-1.86
2023-03-07T03:46:37.380Z,-1.86
2023-03-07T03:47:00.244Z,-1.86
2023-03-07T03:47:31.173Z,-1.86
2023-03-07T03:48:02.958Z,-1.86
2023-03-07T03:48:35.401Z,-1.86
2023-03-07T03:49:08.031Z,-1.86
2023-03-07T03:49:39.286Z,-1.86
2023-03-07T03:50:12.033Z,-1.86
2023-03-07T03:50:37.773Z,-1.86
2023-03-07T03:50:59.695Z,-1.86
2023-03-07T03:51:31.877Z,-1.86
2023-03-07T03:52:03.011Z,-1.86
2023-03-07T03:52:35.517Z,-1.86
2023-03-07T03:53:07.495Z,-1.86
2023-03-07T03:53:38.962Z,-1.86
2023-03-07T03:54:12.240Z,-1.86
2023-03-07T03:54:37.493Z,-1.86
2023-03-07T03:54:59.138Z,-1.86
2023-03-07T03:55:32.164Z,-1.86
2023-03-07T03:56:03.309Z,-1.86
2023-03-07T03:56:35.691Z,-1.86
2023-03-07T03:57:08.140Z,-1.86
2023-03-07T03:57:38.912Z,-1.69
2023-03-07T03:58:11.309Z,-1.86
2023-03-07T03:58:36.640Z,-1.86
2023-03-07T03:58:59.245Z,-1.86
2023-03-07T03:59:30.798Z,-1.86
2023-03-07T03:59:47.637Z,-1.86
2023-03-07T04:00:20.966Z,-1.86
2023-03-07T04:00:40.518Z,-1.86
2023-03-07T04:01:08.152Z,-1.86
2023-03-07T04:01:39.121Z,-1.86
2023-03-07T04:02:10.930Z,-1.69
2023-03-07T04:02:36.758Z,-1.69
2023-03-07T04:02:59.310Z,-1.69
2023-03-07T04:03:30.916Z,-1.86
2023-03-07T04:03:47.312Z,-1.86
2023-03-07T04:04:18.704Z,-1.86
2023-03-07T04:04:40.498Z,-1.75
2023-03-07T04:05:08.133Z,-1.86
2023-03-07T04:05:38.943Z,-1.69
2023-03-07T04:06:11.000Z,-1.69
2023-03-07T04:06:36.687Z,-1.69
2023-03-07T04:06:59.028Z,-1.69
2023-03-07T04:07:30.907Z,-1.69
2023-03-07T04:07:47.409Z,-1.86
2023-03-07T04:08:19.053Z,-1.86
2023-03-07T04:08:40.437Z,-1.75
2023-03-07T04:09:07.557Z,-1.75
2023-03-07T04:09:38.804Z,-1.86
2023-03-07T04:10:11.261Z,-1.86
2023-03-07T04:10:36.769Z,-1.86
2023-03-07T04:10:59.186Z,-1.86
2023-03-07T04:11:30.887Z,-1.86
2023-03-07T04:11:47.420Z,-1.86
2023-03-07T04:12:19.025Z,-1.86
2023-03-07T04:12:40.496Z,-1.69
2023-03-07T04:13:07.518Z,-1.69
2023-03-07T04:13:38.851Z,-1.69
2023-03-07T04:14:10.816Z,-1.69
2023-03-07T04:14:36.597Z,-1.69
2023-03-07T04:14:58.939Z,-1.69
2023-03-07T04:15:31.673Z,-1.69
2023-03-07T04:15:47.441Z,-1.69
2023-03-07T04:16:18.934Z,-1.69
2023-03-07T04:16:40.573Z,-1.69
2023-03-07T04:17:07.504Z,-1.69
2023-03-07T04:17:38.882Z,-1.86
2023-03-07T04:18:10.888Z,-1.59
2023-03-07T04:18:36.682Z,-1.59
2023-03-07T04:18:58.977Z,-1.59
2023-03-07T04:19:30.927Z,-1.59
2023-03-07T04:19:47.626Z,-1.59
2023-03-07T04:20:19.221Z,-1.75
2023-03-07T04:20:40.531Z,-1.75
2023-03-07T04:21:07.364Z,-1.75
2023-03-07T04:21:38.971Z,-1.75
2023-03-07T04:22:11.449Z,-1.75
2023-03-07T04:22:37.132Z,-1.59
2023-03-07T04:22:58.983Z,-1.59
2023-03-07T04:23:31.000Z,-1.59
2023-03-07T04:23:47.371Z,-1.59
2023-03-07T04:24:18.687Z,-1.59
2023-03-07T04:24:40.595Z,-1.59
2023-03-07T04:25:07.899Z,-1.59
2023-03-07T04:25:39.028Z,-1.59
2023-03-07T04:26:11.038Z,-1.59
2023-03-07T04:26:36.680Z,-1.59
2023-03-07T04:26:59.405Z,-1.59
2023-03-07T04:27:31.007Z,-1.59
2023-03-07T04:27:47.541Z,-1.59
2023-03-07T04:28:18.733Z,-1.59
2023-03-07T04:28:40.435Z,-1.59
2023-03-07T04:29:07.525Z,-1.59
2023-03-07T04:29:39.008Z,-1.59
2023-03-07T04:30:11.976Z,-1.59
2023-03-07T04:30:36.757Z,-1.59
2023-03-07T04:30:59.345Z,-1.59
2023-03-07T04:31:31.232Z,-1.59
2023-03-07T04:31:47.322Z,-1.59
2023-03-07T04:32:18.772Z,-1.59
2023-03-07T04:32:40.499Z,-1.59
2023-03-07T04:33:07.546Z,-1.59
2023-03-07T04:33:38.860Z,-1.59
2023-03-07T04:34:10.772Z,-1.59
2023-03-07T04:34:36.630Z,-1.59
2023-03-07T04:34:59.035Z,-1.59
2023-03-07T04:35:31.536Z,-1.59
2023-03-07T04:35:47.437Z,-1.59
2023-03-07T04:36:18.976Z,-1.59
2023-03-07T04:36:40.650Z,-1.59
2023-03-07T04:37:07.514Z,-1.59
2023-03-07T04:37:39.173Z,-1.59
2023-03-07T04:38:10.942Z,-1.59
2023-03-07T04:38:36.857Z,-1.59
2023-03-07T04:38:58.896Z,-1.59
2023-03-07T04:39:30.842Z,-1.59
2023-03-07T04:39:47.543Z,-1.59
2023-03-07T04:40:19.168Z,-1.59
2023-03-07T04:40:40.556Z,-1.59
2023-03-07T04:41:07.847Z,-1.59
2023-03-07T04:41:38.969Z,-1.59
2023-03-07T04:42:10.870Z,-1.59
2023-03-07T04:42:37.075Z,-1.59
2023-03-07T04:42:59.129Z,-1.59
2023-03-07T04:43:30.906Z,-1.59
2023-03-07T04:43:47.657Z,-1.59
2023-03-07T04:44:18.775Z,-1.59
2023-03-07T04:44:40.620Z,-1.59
2023-03-07T04:45:08.303Z,-1.59
2023-03-07T04:45:39.145Z,-1.59
2023-03-07T04:46:11.288Z,-1.59
2023-03-07T04:46:37.008Z,-1.59
2023-03-07T04:46:59.574Z,-1.59
2023-03-07T04:47:30.863Z,-1.59
2023-03-07T04:47:47.567Z,-1.43
2023-03-07T04:48:18.727Z,-1.43
2023-03-07T04:48:40.774Z,-1.54
2023-03-07T04:49:07.437Z,-1.59
2023-03-07T04:49:39.475Z,-1.59
2023-03-07T04:50:11.213Z,-1.59
2023-03-07T04:50:36.737Z,-1.59
2023-03-07T04:50:59.929Z,-1.43
2023-03-07T04:51:30.844Z,-1.59
2023-03-07T04:51:47.465Z,-1.59
2023-03-07T04:52:18.714Z,-1.43
2023-03-07T04:52:41.035Z,-1.43
2023-03-07T04:53:07.455Z,-1.43
2023-03-07T04:53:39.010Z,-1.43
2023-03-07T04:54:11.166Z,-1.43
2023-03-07T04:54:36.787Z,-1.43
2023-03-07T04:54:59.013Z,-1.59
2023-03-07T04:55:31.357Z,-1.43
2023-03-07T04:55:47.473Z,-1.43
2023-03-07T04:56:18.780Z,-1.43
2023-03-07T04:56:40.473Z,-1.43
2023-03-07T04:57:07.510Z,-1.54
2023-03-07T04:57:38.999Z,-1.43
2023-03-07T04:58:10.777Z,-1.43
2023-03-07T04:58:36.897Z,-1.43
2023-03-07T04:58:59.389Z,-1.43
2023-03-07T04:59:30.834Z,-1.43
2023-03-07T04:59:47.411Z,-1.43
2023-03-07T05:00:19.590Z,-1.43
2023-03-07T05:00:40.464Z,-1.59
2023-03-07T05:01:08.202Z,-1.59
2023-03-07T05:01:38.994Z,-1.43
2023-03-07T05:02:10.891Z,-1.43
2023-03-07T05:02:36.714Z,-1.43
2023-03-07T05:02:59.061Z,-1.43
2023-03-07T05:03:30.954Z,-1.43
2023-03-07T05:03:47.970Z,-1.43
2023-03-07T05:04:18.975Z,-1.43
2023-03-07T05:04:40.524Z,-1.43
2023-03-07T05:05:08.123Z,-1.43
2023-03-07T05:05:38.956Z,-1.43
2023-03-07T05:06:11.233Z,-1.43
2023-03-07T05:06:36.788Z,-1.43
2023-03-07T05:06:59.265Z,-1.43
2023-03-07T05:07:30.875Z,-1.43
2023-03-07T05:07:47.705Z,-1.43
2023-03-07T05:08:18.798Z,-1.43
2023-03-07T05:08:40.519Z,-1.43
2023-03-07T05:09:07.424Z,-1.43
2023-03-07T05:09:38.879Z,-1.43
2023-03-07T05:10:11.186Z,-1.43
2023-03-07T05:10:37.058Z,-1.43
2023-03-07T05:10:59.371Z,-1.43
2023-03-07T05:11:30.920Z,-1.43
2023-03-07T05:11:47.775Z,-1.43
2023-03-07T05:12:18.862Z,-1.43
2023-03-07T05:12:40.485Z,-1.43
2023-03-07T05:13:07.460Z,-1.43
2023-03-07T05:13:39.016Z,-1.43
2023-03-07T05:14:11.050Z,-1.43
2023-03-07T05:14:36.774Z,-1.43
2023-03-07T05:14:58.958Z,-1.43
2023-03-07T05:15:31.842Z,-1.43
2023-03-07T05:15:47.738Z,-1.43
2023-03-07T05:16:19.048Z,-1.43
2023-03-07T05:16:40.511Z,-1.43
2023-03-07T05:17:07.466Z,-1.43
2023-03-07T05:17:38.945Z,-1.43
2023-03-07T05:18:10.857Z,-1.43
2023-03-07T05:18:36.588Z,-1.43
2023-03-07T05:18:58.952Z,-1.43
2023-03-07T05:19:30.954Z,-1.26
2023-03-07T05:19:47.324Z,-1.26
2023-03-07T05:20:19.291Z,-1.37
2023-03-07T05:20:40.471Z,-1.37
2023-03-07T05:21:07.624Z,-1.37
2023-03-07T05:21:38.918Z,-1.37
2023-03-07T05:22:11.439Z,-1.37
2023-03-07T05:22:36.729Z,-1.37
2023-03-07T05:22:59.099Z,-1.54
2023-03-07T05:23:30.921Z,-1.54
2023-03-07T05:23:47.454Z,-1.43
2023-03-07T05:24:18.919Z,-1.43
2023-03-07T05:24:40.422Z,-1.43
2023-03-07T05:25:07.951Z,-1.43
2023-03-07T05:25:38.991Z,-1.43
2023-03-07T05:26:11.187Z,-1.43
2023-03-07T05:26:36.741Z,-1.43
2023-03-07T05:26:59.187Z,-1.43
2023-03-07T05:27:30.940Z,-1.43
2023-03-07T05:27:47.644Z,-1.43
2023-03-07T05:28:19.118Z,-1.43
2023-03-07T05:28:40.440Z,-1.43
2023-03-07T05:29:07.449Z,-1.43
2023-03-07T05:29:38.947Z,-1.43
2023-03-07T05:30:12.273Z,-1.43
2023-03-07T05:30:37.289Z,-1.43
2023-03-07T05:30:59.743Z,-1.43
2023-03-07T05:31:31.065Z,-1.26
2023-03-07T05:31:47.462Z,-1.26
2023-03-07T05:32:18.926Z,-1.26
2023-03-07T05:32:40.507Z,-1.26
2023-03-07T05:33:07.485Z,-1.26
2023-03-07T05:33:39.176Z,-1.43
2023-03-07T05:34:10.821Z,-1.26
2023-03-07T05:34:36.682Z,-1.26
2023-03-07T05:34:59.051Z,-1.26
2023-03-07T05:35:31.444Z,-1.26
2023-03-07T05:35:47.412Z,-1.26
2023-03-07T05:36:18.774Z,-1.37
2023-03-07T05:36:40.420Z,-1.37
2023-03-07T05:37:07.469Z,-1.43
2023-03-07T05:37:39.263Z,-1.43
2023-03-07T05:38:10.732Z,-1.26
2023-03-07T05:38:36.645Z,-1.26
2023-03-07T05:38:59.390Z,-1.26
2023-03-07T05:39:30.806Z,-1.26
2023-03-07T05:39:47.415Z,-1.26
2023-03-07T05:40:19.118Z,-1.26
2023-03-07T05:40:40.492Z,-1.26
2023-03-07T05:41:07.483Z,-1.26
2023-03-07T05:41:39.274Z,-1.26
2023-03-07T05:42:10.897Z,-1.26
2023-03-07T05:42:36.639Z,-1.26
2023-03-07T05:42:59.869Z,-1.26
2023-03-07T05:43:30.850Z,-1.26
2023-03-07T05:43:47.373Z,-1.26
2023-03-07T05:44:18.753Z,-1.26
2023-03-07T05:44:40.527Z,-1.26
2023-03-07T05:45:08.736Z,-1.26
2023-03-07T05:45:39.259Z,-1.26
2023-03-07T05:46:10.824Z,-1.26
2023-03-07T05:46:36.798Z,-1.26
2023-03-07T05:46:58.934Z,-1.26
2023-03-07T05:47:30.939Z,-1.26
2023-03-07T05:47:47.435Z,-1.26
2023-03-07T05:48:18.811Z,-1.26
2023-03-07T05:48:40.584Z,-1.10
2023-03-07T05:49:07.521Z,-1.10
2023-03-07T05:49:39.605Z,-1.10
2023-03-07T05:50:11.767Z,-1.10
2023-03-07T05:50:36.660Z,-1.10
2023-03-07T05:50:59.518Z,-1.10
2023-03-07T05:51:30.941Z,-1.10
2023-03-07T05:51:47.493Z,-1.10
2023-03-07T05:52:19.152Z,-1.10
2023-03-07T05:52:40.789Z,-1.10
2023-03-07T05:53:07.450Z,-1.10
2023-03-07T05:53:38.968Z,-1.10
2023-03-07T05:54:11.399Z,-1.10
2023-03-07T05:54:36.909Z,-1.10
2023-03-07T05:54:59.161Z,-1.10
2023-03-07T05:55:31.416Z,-.94
2023-03-07T05:55:47.550Z,-.94
2023-03-07T05:56:18.984Z,-1.05
2023-03-07T05:56:40.694Z,-1.05
2023-03-07T05:57:07.679Z,-1.05
2023-03-07T05:57:39.198Z,-1.05